Time;durP1;ratioP1;P1;durP2;ratioP2;P2;SDS_P1;SDS_P2;PMS_P1;PMS_P2;Temp;Humidity;BMP_temperature;BMP_pressure;BME280_temperature;BME280_humidity;BME280_pressure;Samples;Min_cycle;Max_cycle;Signal;HPM_P1;HPM_P2
2022/08/14 00:00:52;;;;;;;8.73;6.30;;;;;;;15.78;77.62;95134.83;1709550;84;21009;-69
2022/08/14 00:03:26;;;;;;;9.90;7.40;;;;;;;15.75;77.09;95133.64;1709328;84;21064;-69
2022/08/14 00:05:55;;;;;;;11.45;7.30;;;;;;;15.81;77.44;95132.49;1709573;84;21025;-69
2022/08/14 00:08:22;;;;;;;12.58;6.97;;;;;;;15.94;77.56;95135.82;1709561;84;21028;-69
2022/08/14 00:10:50;;;;;;;8.78;7.80;;;;;;;16.00;77.42;95135.55;1709483;84;21516;-69
2022/08/14 00:13:19;;;;;;;8.40;7.50;;;;;;;16.08;77.62;95133.00;1709443;84;21036;-69
2022/08/14 00:15:48;;;;;;;10.23;7.17;;;;;;;16.14;77.77;95128.23;1709609;84;20997;-69
2022/08/14 00:18:20;;;;;;;8.93;6.90;;;;;;;16.14;77.33;95129.56;1709311;84;21000;-69
2022/08/14 00:20:47;;;;;;;9.50;6.67;;;;;;;16.14;77.13;95130.03;1710093;84;21008;-69
2022/08/14 00:23:16;;;;;;;9.00;6.80;;;;;;;16.10;76.85;95129.77;1709626;84;21001;-69
2022/08/14 00:25:46;;;;;;;9.45;6.97;;;;;;;16.09;76.99;95125.40;1679873;84;21012;-69
2022/08/14 00:28:14;;;;;;;8.35;7.15;;;;;;;16.12;77.78;95131.42;1709231;84;21092;-69
2022/08/14 00:30:41;;;;;;;9.55;7.45;;;;;;;16.19;77.56;95121.36;1709416;84;21048;-69
2022/08/14 00:33:08;;;;;;;12.70;8.25;;;;;;;16.29;77.56;95127.11;1709088;84;21080;-70
2022/08/14 00:35:35;;;;;;;9.05;7.45;;;;;;;16.36;77.43;95116.56;1709639;84;21116;-69
2022/08/14 00:38:02;;;;;;;11.00;7.78;;;;;;;16.42;77.36;95114.44;1709689;84;21024;-69
2022/08/14 00:40:28;;;;;;;14.15;8.20;;;;;;;16.44;77.03;95114.38;1709306;84;21016;-69
2022/08/14 00:42:55;;;;;;;9.15;6.75;;;;;;;16.47;77.02;95118.69;1710372;84;21113;-69
2022/08/14 00:45:22;;;;;;;10.90;7.55;;;;;;;16.46;77.02;95111.17;1710226;84;21113;-69
2022/08/14 00:47:49;;;;;;;9.65;7.58;;;;;;;16.40;77.51;95108.80;1710222;84;21030;-69
2022/08/14 00:50:20;;;;;;;9.50;7.55;;;;;;;16.37;77.30;95097.83;1710603;84;21045;-69
2022/08/14 00:52:51;;;;;;;8.63;6.67;;;;;;;16.35;77.28;95113.00;1710437;84;21017;-69
2022/08/14 00:55:19;;;;;;;8.73;6.90;;;;;;;16.35;77.28;95113.00;1710587;84;21440;-69
2022/08/14 00:58:30;;;;;;;10.43;6.92;;;;;;;16.33;76.73;95112.25;1710622;84;21018;-69
2022/08/14 01:00:19;;;;;;;9.88;6.70;;;;;;;16.22;76.65;95110.55;1695183;84;21073;-69
2022/08/14 01:02:46;;;;;;;8.30;7.00;;;;;;;16.22;77.02;95107.89;1710545;84;21009;-69
2022/08/14 01:05:34;;;;;;;9.20;6.42;;;;;;;16.23;76.97;95109.64;1710524;84;21022;-69
2022/08/14 01:07:41;;;;;;;12.47;7.60;;;;;;;16.23;76.97;95109.64;1702815;84;21042;-69
2022/08/14 01:10:10;;;;;;;9.55;7.15;;;;;;;16.15;78.12;95098.03;1710619;84;21495;-70
2022/08/14 01:12:40;;;;;;;13.88;7.10;;;;;;;16.15;78.12;95098.03;1710600;84;21532;-69
2022/08/14 01:15:08;;;;;;;8.55;6.80;;;;;;;16.21;78.26;95107.52;1710451;84;21037;-69
2022/08/14 01:22:56;;;;;;;8.58;6.92;;;;;;;16.07;78.33;95104.64;1710416;84;21559;-69
2022/08/14 01:25:23;;;;;;;10.65;7.20;;;;;;;16.11;78.35;95095.11;1710804;84;21009;-69
2022/08/14 01:27:54;;;;;;;10.50;7.03;;;;;;;16.11;78.35;95095.11;1710093;84;21323;-69
2022/08/14 01:30:21;;;;;;;9.53;6.65;;;;;;;16.20;77.74;95103.11;1710391;84;21005;-69
2022/08/14 01:32:49;;;;;;;8.10;7.00;;;;;;;16.06;77.32;95105.12;1710376;84;21124;-69
2022/08/14 01:35:17;;;;;;;10.58;6.37;;;;;;;15.99;77.28;95106.34;1710437;84;21033;-70
2022/08/14 01:37:45;;;;;;;8.78;6.58;;;;;;;15.90;77.15;95102.77;1710282;84;21053;-69
2022/08/14 01:40:13;;;;;;;8.53;6.85;;;;;;;15.88;77.29;95103.34;1710526;84;21025;-69
2022/08/14 01:42:43;;;;;;;9.08;6.53;;;;;;;15.84;78.05;95097.76;1712267;84;21048;-69
2022/08/14 01:45:13;;;;;;;7.92;6.58;;;;;;;15.78;77.81;95093.13;1712916;84;21051;-70
2022/08/14 01:47:40;;;;;;;9.08;6.53;;;;;;;15.77;78.35;95092.73;1712812;84;21028;-70
2022/08/14 01:50:08;;;;;;;7.40;5.83;;;;;;;15.73;77.82;95079.66;1712550;84;21044;-69
2022/08/14 01:52:37;;;;;;;9.93;6.55;;;;;;;15.65;77.56;95085.30;1712814;84;21012;-70
2022/08/14 01:55:08;;;;;;;8.80;7.20;;;;;;;15.61;77.53;95082.84;1712890;84;21452;-69
2022/08/14 01:57:36;;;;;;;9.70;7.20;;;;;;;15.61;77.69;95082.84;1712725;84;21032;-69
2022/08/14 02:00:25;;;;;;;8.28;6.67;;;;;;;15.64;78.26;95079.56;1712879;84;21083;-69
2022/08/14 02:02:38;;;;;;;9.28;7.28;;;;;;;15.63;78.05;95083.17;1710925;84;21487;-69
2022/08/14 02:05:07;;;;;;;8.60;6.92;;;;;;;15.62;78.59;95081.42;1712844;84;21040;-69
2022/08/14 02:07:36;;;;;;;12.18;7.10;;;;;;;15.59;78.14;95077.11;1686733;84;20969;-70
2022/08/14 02:10:05;;;;;;;8.20;7.30;;;;;;;15.48;78.08;95075.43;1712756;84;21020;-69
2022/08/14 02:12:32;;;;;;;8.68;6.95;;;;;;;15.46;78.28;95069.79;1712811;84;21084;-69
2022/08/14 02:14:59;;;;;;;8.78;6.62;;;;;;;15.46;78.43;95079.09;1712855;84;21447;-69
2022/08/14 02:17:28;;;;;;;9.23;7.15;;;;;;;15.45;78.89;95072.92;1712699;84;20985;-70
2022/08/14 02:19:54;;;;;;;8.03;6.78;;;;;;;15.43;78.90;95069.46;1712773;84;20973;-69
2022/08/14 02:22:21;;;;;;;8.58;7.67;;;;;;;15.47;78.93;95079.48;1712999;84;21056;-70
2022/08/14 02:24:47;;;;;;;8.90;7.17;;;;;;;15.52;78.79;95075.70;1712721;84;20957;-70
2022/08/14 02:27:17;;;;;;;9.48;7.00;;;;;;;15.57;78.58;95074.12;1712996;84;21000;-69
2022/08/14 02:29:43;;;;;;;11.68;6.90;;;;;;;15.47;77.64;95073.72;1712954;84;21057;-69
2022/08/14 02:32:10;;;;;;;11.30;6.70;;;;;;;15.45;78.23;95063.62;1712617;84;21574;-69
2022/08/14 02:34:38;;;;;;;8.28;6.78;;;;;;;15.47;77.95;95067.07;1712524;84;21494;-70
2022/08/14 02:37:09;;;;;;;8.40;7.00;;;;;;;15.46;77.66;95073.30;1712924;84;21483;-70
2022/08/14 02:39:40;;;;;;;11.63;7.22;;;;;;;15.34;78.07;95068.55;1712833;84;21029;-69
2022/08/14 02:42:11;;;;;;;7.72;6.92;;;;;;;15.25;78.35;95073.83;1711070;83;21080;-69
2022/08/14 02:44:40;;;;;;;10.50;7.45;;;;;;;15.15;78.77;95068.06;1709414;84;21008;-69
2022/08/14 02:47:07;;;;;;;10.35;7.78;;;;;;;15.10;79.22;95077.17;1709477;84;21020;-69
2022/08/14 02:49:35;;;;;;;9.65;7.10;;;;;;;15.13;79.41;95071.25;1709226;84;21009;-69
2022/08/14 02:52:06;;;;;;;7.30;6.35;;;;;;;15.24;79.33;95072.55;1709439;84;21025;-70
2022/08/14 02:54:34;;;;;;;8.75;6.60;;;;;;;15.16;78.41;95070.24;1709501;84;21520;-70
2022/08/14 02:57:06;;;;;;;7.70;6.28;;;;;;;15.01;78.09;95076.24;1709479;84;21021;-69
2022/08/14 02:59:38;;;;;;;11.25;6.75;;;;;;;14.93;78.39;95078.77;1709358;84;21041;-69
2022/08/14 03:02:04;;;;;;;7.72;6.40;;;;;;;14.86;78.36;95071.13;1709577;84;21009;-70
2022/08/14 03:04:31;;;;;;;8.38;5.92;;;;;;;14.86;78.67;95077.30;1709337;84;21005;-70
2022/08/14 03:06:58;;;;;;;8.08;6.67;;;;;;;14.77;78.39;95075.06;1709530;84;21044;-69
2022/08/14 03:09:26;;;;;;;9.43;7.05;;;;;;;14.67;78.76;95085.22;1709636;84;20978;-70
2022/08/14 03:11:52;;;;;;;8.75;6.83;;;;;;;14.70;78.95;95089.53;1709552;84;21009;-70
2022/08/14 03:14:21;;;;;;;9.70;7.25;;;;;;;14.63;79.88;95080.09;1709633;84;21017;-70
2022/08/14 03:16:49;;;;;;;8.55;6.60;;;;;;;14.60;80.86;95077.58;1709686;84;20993;-70
2022/08/14 03:19:16;;;;;;;9.85;7.12;;;;;;;14.59;80.38;95079.38;1709167;84;21017;-69
2022/08/14 03:21:44;;;;;;;9.33;6.83;;;;;;;14.59;80.12;95080.70;1709525;84;21017;-70
2022/08/14 03:24:11;;;;;;;11.68;7.20;;;;;;;14.57;80.27;95077.72;1709508;84;21035;-70
2022/08/14 03:26:40;;;;;;;7.67;6.05;;;;;;;14.61;80.99;95082.80;1709471;84;20981;-70
2022/08/14 03:29:11;;;;;;;9.30;7.47;;;;;;;14.64;80.75;95087.13;1709460;84;21013;-70
2022/08/14 03:31:39;;;;;;;12.45;7.55;;;;;;;14.66;80.67;95090.58;1709760;84;20985;-70
2022/08/14 03:34:11;;;;;;;9.95;7.45;;;;;;;14.73;81.08;95091.20;1709176;84;21036;-69
2022/08/14 03:36:39;;;;;;;8.20;6.47;;;;;;;14.69;80.25;95093.09;1709498;84;21001;-70
2022/08/14 03:39:08;;;;;;;7.78;6.92;;;;;;;14.69;80.02;95094.42;1709250;84;21001;-70
2022/08/14 03:41:36;;;;;;;8.88;7.33;;;;;;;14.62;81.15;95096.50;1709264;84;21032;-70
2022/08/14 03:44:05;;;;;;;9.30;6.72;;;;;;;14.60;81.08;95093.04;1709462;84;21024;-70
2022/08/14 03:46:36;;;;;;;9.17;7.27;;;;;;;14.56;80.34;95096.73;1709519;84;21507;-70
2022/08/14 03:49:04;;;;;;;8.78;6.78;;;;;;;14.61;81.08;95094.75;1709325;84;21029;-69
2022/08/14 03:51:33;;;;;;;11.45;7.75;;;;;;;14.73;80.77;95095.17;1709634;84;20981;-70
2022/08/14 03:54:03;;;;;;;10.25;7.78;;;;;;;14.79;81.16;95101.54;1709559;84;21089;-70
2022/08/14 03:56:30;;;;;;;9.75;7.85;;;;;;;14.89;80.96;95093.13;1656377;84;21343;-70
2022/08/14 03:59:06;;;;;;;10.10;7.60;;;;;;;14.98;80.60;95093.18;1709681;84;21480;-70
2022/08/14 04:01:32;;;;;;;9.20;7.72;;;;;;;15.03;80.21;95087.20;1709700;84;21020;-70
2022/08/14 04:04:05;;;;;;;9.18;7.65;;;;;;;15.08;80.31;95090.98;1709363;84;21029;-69
2022/08/14 04:06:27;;;;;;;9.38;7.78;;;;;;;15.11;80.22;95091.70;1709063;84;21005;-70
2022/08/14 04:08:54;;;;;;;11.00;7.90;;;;;;;15.23;80.46;95090.30;1709718;84;21005;-70
2022/08/14 04:11:21;;;;;;;9.28;7.05;;;;;;;15.38;79.83;95101.19;1709698;84;21004;-70
2022/08/14 04:13:50;;;;;;;9.48;7.42;;;;;;;15.41;79.41;95101.04;1709851;84;21068;-70
2022/08/14 04:16:20;;;;;;;8.30;7.03;;;;;;;15.46;80.08;95094.57;1709398;84;21040;-70
2022/08/14 04:18:51;;;;;;;10.55;7.00;;;;;;;15.50;80.53;95095.31;1709722;84;21519;-70
2022/08/14 04:21:23;;;;;;;8.98;6.80;;;;;;;15.45;80.70;95095.52;1709467;84;21048;-70
2022/08/14 04:23:52;;;;;;;8.95;7.00;;;;;;;15.47;80.38;95099.42;1709577;84;21064;-70
2022/08/14 04:26:21;;;;;;;9.43;7.60;;;;;;;15.57;81.01;95103.38;1709611;84;20965;-70
2022/08/14 04:28:49;;;;;;;10.65;7.50;;;;;;;15.57;81.01;95103.38;1709566;84;21581;-70
2022/08/14 04:31:19;;;;;;;8.45;6.83;;;;;;;15.71;81.25;95104.12;1709469;84;21044;-70
2022/08/14 04:33:47;;;;;;;10.03;7.37;;;;;;;15.89;80.74;95109.05;1709645;84;21491;-70
2022/08/14 04:36:14;;;;;;;10.75;7.75;;;;;;;15.96;80.65;95103.36;1709514;84;21060;-70
2022/08/14 04:44:11;;;;;;;10.65;7.42;;;;;;;16.41;79.96;95103.88;1709487;84;21060;-70
2022/08/14 04:46:38;;;;;;;14.03;8.00;;;;;;;16.51;79.33;95101.16;1709891;84;21028;-70
2022/08/14 04:49:05;;;;;;;8.78;7.50;;;;;;;16.65;79.05;95102.64;1709741;84;21005;-70
2022/08/14 04:51:32;;;;;;;9.83;7.87;;;;;;;16.81;79.20;95107.25;1709475;84;21044;-70
2022/08/14 04:54:00;;;;;;;8.93;7.90;;;;;;;16.98;78.39;95097.89;1709394;84;21076;-70
2022/08/14 04:56:27;;;;;;;8.93;7.78;;;;;;;17.14;78.30;95096.65;1709626;84;21025;-70
2022/08/14 04:58:58;;;;;;;10.18;8.30;;;;;;;17.30;77.94;95098.03;1709231;84;21077;-70
2022/08/14 05:01:26;;;;;;;11.53;8.33;;;;;;;17.43;77.94;95091.57;1709756;84;20985;-70
2022/08/14 05:03:54;;;;;;;10.20;7.70;;;;;;;17.58;77.59;95094.75;1709634;84;21013;-70
2022/08/14 05:18:16;;;;;;;9.18;8.25;;;;;;;19.27;73.59;95086.94;1860123;77;23372;-72
2022/08/14 05:20:46;;;;;;;10.78;8.80;;;;;;;19.20;72.83;95090.00;1832380;78;21569;-72
2022/08/14 05:23:17;;;;;;;9.95;8.88;;;;;;;19.28;73.39;95089.98;1832440;78;21046;-72
2022/08/14 05:25:50;;;;;;;9.68;8.50;;;;;;;19.37;72.97;95090.28;1832093;78;21499;-72
2022/08/14 05:28:21;;;;;;;10.75;8.90;;;;;;;19.46;72.29;95087.06;1832235;78;20960;-72
2022/08/14 05:30:53;;;;;;;10.43;9.25;;;;;;;19.55;71.89;95091.45;1832366;78;20959;-72
2022/08/14 05:33:23;;;;;;;11.00;9.30;;;;;;;19.63;71.24;95086.48;1830667;78;20992;-72
2022/08/14 05:35:52;;;;;;;11.50;9.33;;;;;;;19.70;71.10;95089.67;1832387;78;21015;-72
2022/08/14 05:38:21;;;;;;;15.45;11.15;;;;;;;19.71;70.12;95090.08;1832331;78;21012;-72
2022/08/14 05:40:48;;;;;;;11.30;10.10;;;;;;;19.75;70.41;95087.57;1832194;78;21005;-72
2022/08/14 05:43:15;;;;;;;14.25;11.35;;;;;;;19.84;70.56;95086.52;1832345;78;21570;-72
2022/08/14 05:45:42;;;;;;;13.85;10.30;;;;;;;19.96;69.99;95083.55;1832262;78;21023;-72
2022/08/14 05:48:13;;;;;;;11.83;10.58;;;;;;;20.06;69.63;95078.47;1832183;78;21004;-72
2022/08/14 05:50:40;;;;;;;11.53;10.32;;;;;;;20.16;69.36;95081.39;1832192;78;20988;-72
2022/08/14 05:53:07;;;;;;;10.98;9.50;;;;;;;20.24;69.39;95081.30;1832148;78;21521;-71
2022/08/14 05:55:34;;;;;;;10.60;9.50;;;;;;;20.29;69.12;95080.52;1832291;78;21052;-72
2022/08/14 05:58:05;;;;;;;13.72;9.45;;;;;;;20.37;68.64;95081.84;1832062;78;21000;-71
2022/08/14 06:00:42;;;;;;;11.90;8.70;;;;;;;20.35;68.28;95076.56;1832372;78;21026;-72
2022/08/14 06:03:16;;;;;;;10.08;8.85;;;;;;;20.36;67.92;95076.08;1832451;78;21047;-72
2022/08/14 06:05:45;;;;;;;10.10;8.63;;;;;;;20.36;65.84;95072.06;1831379;78;21516;-72
2022/08/14 06:08:29;;;;;;;13.48;9.65;;;;;;;20.40;66.91;95069.57;1832113;78;21011;-71
2022/08/14 06:11:04;;;;;;;12.43;9.03;;;;;;;20.48;66.67;95070.77;1832328;78;21536;-72
2022/08/14 06:13:39;;;;;;;13.20;9.98;;;;;;;20.58;66.02;95066.19;1831843;78;21004;-72
2022/08/14 06:16:06;;;;;;;11.55;9.10;;;;;;;20.70;65.74;95062.69;1832533;78;20984;-71
2022/08/14 06:18:34;;;;;;;12.58;10.08;;;;;;;20.86;65.95;95063.85;1835269;78;21009;-72
2022/08/14 06:21:03;;;;;;;11.18;9.53;;;;;;;21.02;66.05;95060.52;1835125;78;20983;-72
2022/08/14 06:23:31;;;;;;;11.20;8.35;;;;;;;21.18;65.63;95063.86;1834856;78;20960;-72
2022/08/14 06:25:57;;;;;;;9.38;8.10;;;;;;;21.31;62.41;95055.81;1835120;78;20964;-72
2022/08/14 06:28:26;;;;;;;9.48;8.25;;;;;;;21.45;62.87;95059.41;1834676;78;21079;-72
2022/08/14 06:30:54;;;;;;;9.70;8.45;;;;;;;21.60;63.29;95059.19;1835311;78;21047;-72
2022/08/14 06:33:21;;;;;;;11.95;8.50;;;;;;;21.73;62.89;95059.66;1835250;78;21019;-72
2022/08/14 06:35:49;;;;;;;10.38;8.83;;;;;;;21.90;62.75;95059.32;1834798;78;20997;-72
2022/08/14 06:38:22;;;;;;;13.08;8.68;;;;;;;22.03;62.54;95055.26;1835185;78;21047;-72
2022/08/14 06:40:50;;;;;;;11.18;8.85;;;;;;;22.16;61.56;95052.54;1835466;78;20995;-72
2022/08/14 06:43:19;;;;;;;11.68;8.40;;;;;;;22.27;61.60;95049.94;1834962;78;20992;-72
2022/08/14 06:45:48;;;;;;;10.43;8.48;;;;;;;22.35;60.43;95052.95;1835216;78;20983;-72
2022/08/14 06:48:22;;;;;;;11.15;8.70;;;;;;;22.42;60.57;95060.05;1835182;78;21497;-72
2022/08/14 06:50:52;;;;;;;10.98;8.73;;;;;;;22.53;60.90;95053.87;1835237;78;20988;-72
2022/08/14 06:53:20;;;;;;;9.70;8.68;;;;;;;22.61;60.06;95056.38;1835183;78;21033;-72
2022/08/14 06:55:48;;;;;;;9.00;8.10;;;;;;;22.65;60.26;95052.95;1835407;78;20987;-72
2022/08/14 06:58:18;;;;;;;8.43;7.60;;;;;;;22.71;59.93;95051.17;1835066;78;21015;-72
2022/08/14 07:06:17;;;;;;;9.65;8.65;;;;;;;23.05;58.28;95056.70;1835385;78;20999;-72
2022/08/14 07:08:44;;;;;;;9.15;8.18;;;;;;;23.09;56.84;95051.47;1835478;78;21011;-72
2022/08/14 07:11:12;;;;;;;9.50;8.48;;;;;;;23.20;57.29;95050.63;1834780;78;21020;-72
2022/08/14 07:13:39;;;;;;;9.85;7.95;;;;;;;23.27;56.27;95048.70;1835031;78;21504;-72
2022/08/14 07:16:07;;;;;;;9.25;8.28;;;;;;;23.33;55.59;95040.16;1835021;78;21007;-72
2022/08/14 07:18:35;;;;;;;10.58;8.65;;;;;;;23.40;55.57;95031.59;1840527;78;21505;-72
2022/08/14 07:21:05;;;;;;;9.68;8.75;;;;;;;23.44;55.53;95039.31;1840750;78;21054;-72
2022/08/14 07:23:32;;;;;;;10.88;8.25;;;;;;;23.58;55.42;95038.70;1840723;78;21003;-72
2022/08/14 07:26:01;;;;;;;12.28;8.30;;;;;;;23.57;54.27;95034.31;1840710;78;21015;-72
2022/08/14 07:28:31;;;;;;;10.55;8.48;;;;;;;23.61;53.86;95031.73;1840583;78;21501;-72
2022/08/14 07:31:02;;;;;;;10.55;8.48;;;;;;;23.74;54.52;95036.06;1840478;78;20968;-72
2022/08/14 07:33:33;;;;;;;10.15;8.93;;;;;;;23.81;53.59;95034.22;1840955;78;21006;-72
2022/08/14 07:36:04;;;;;;;10.75;8.55;;;;;;;23.94;54.33;95034.48;1840759;78;20993;-72
2022/08/14 07:38:31;;;;;;;9.95;8.95;;;;;;;24.08;54.14;95037.88;1840804;78;21039;-72
2022/08/14 07:40:58;;;;;;;9.90;8.75;;;;;;;24.25;53.63;95036.02;1840854;78;20959;-72
2022/08/14 07:43:25;;;;;;;9.88;8.55;;;;;;;24.35;53.20;95033.44;1840440;78;21011;-72
2022/08/14 07:45:52;;;;;;;9.28;8.35;;;;;;;24.37;51.61;95032.33;1840639;78;21493;-72
2022/08/14 07:48:18;;;;;;;11.63;9.23;;;;;;;24.41;51.75;95037.81;1840402;78;21133;-72
2022/08/14 07:50:46;;;;;;;9.23;8.33;;;;;;;24.55;52.08;95038.57;1840817;78;20983;-72
2022/08/14 07:53:13;;;;;;;10.00;8.85;;;;;;;24.67;53.00;95033.51;1840291;78;21011;-72
2022/08/14 07:55:42;;;;;;;11.08;8.68;;;;;;;24.81;52.55;95029.64;1840931;78;20947;-73
2022/08/14 07:58:09;;;;;;;10.23;8.23;;;;;;;24.85;51.20;95029.76;1840484;78;20999;-72
2022/08/14 08:00:37;;;;;;;9.80;8.80;;;;;;;24.87;49.37;95026.91;1840656;78;21485;-72
2022/08/14 08:03:09;;;;;;;9.88;8.73;;;;;;;24.81;50.76;95026.94;1840534;78;20983;-72
2022/08/14 08:05:38;;;;;;;10.60;9.03;;;;;;;24.87;49.87;95015.62;1840828;78;20952;-72
2022/08/14 08:08:07;;;;;;;10.03;8.95;;;;;;;25.02;49.69;95026.49;1840559;78;21509;-73
2022/08/14 08:10:37;;;;;;;11.03;9.60;;;;;;;25.13;48.25;95019.32;1840715;78;21019;-72
2022/08/14 08:13:20;;;;;;;9.63;8.70;;;;;;;25.14;48.38;95016.47;1840263;78;20988;-72
2022/08/14 08:15:52;;;;;;;11.57;9.05;;;;;;;25.24;48.95;95011.17;1840730;78;20967;-73
2022/08/14 08:18:20;;;;;;;;;;;;;;;25.27;48.61;95006.86;1836648;78;21123;-73
2022/08/14 08:20:51;;;;;;;10.43;9.43;;;;;;;25.38;49.23;94999.20;1831360;78;20096;-73
2022/08/14 08:23:22;;;;;;;11.63;8.78;;;;;;;25.55;50.20;95005.34;1832003;78;21497;-72
2022/08/14 08:25:51;;;;;;;10.15;8.75;;;;;;;25.78;50.13;95006.48;1831607;78;21077;-72
2022/08/14 08:28:24;;;;;;;10.03;8.85;;;;;;;25.93;48.18;95001.61;1831560;78;21027;-72
2022/08/14 08:30:55;;;;;;;13.00;10.18;;;;;;;26.04;47.59;94997.47;1831661;78;21006;-72
2022/08/14 08:33:25;;;;;;;10.03;8.80;;;;;;;26.10;47.56;95000.95;1831628;78;21054;-72
2022/08/14 08:35:52;;;;;;;10.70;8.75;;;;;;;26.16;47.94;95001.77;1831406;78;21007;-72
2022/08/14 08:38:22;;;;;;;11.63;9.48;;;;;;;26.25;47.39;94995.52;1831777;78;21019;-72
2022/08/14 08:40:55;;;;;;;12.53;9.05;;;;;;;26.31;47.57;94996.33;1831699;78;21576;-71
2022/08/14 08:43:32;;;;;;;11.80;9.15;;;;;;;26.33;43.84;94991.64;1831611;78;20999;-72
2022/08/14 08:46:07;;;;;;;9.83;8.93;;;;;;;26.36;46.15;94992.33;1831305;78;20972;-72
2022/08/14 08:48:53;;;;;;;9.90;8.90;;;;;;;26.51;46.46;94985.05;1831610;78;21473;-71
2022/08/14 08:51:28;;;;;;;9.50;8.40;;;;;;;26.50;44.31;94986.03;1827120;78;21047;-72
2022/08/14 08:54:12;;;;;;;11.12;9.48;;;;;;;26.50;44.26;94983.32;1831717;78;21042;-71
2022/08/14 08:56:47;;;;;;;9.13;8.08;;;;;;;26.60;46.34;94975.75;1831378;78;21016;-71
2022/08/14 08:59:27;;;;;;;9.88;8.88;;;;;;;26.75;44.02;94975.18;1831462;78;21520;-71
2022/08/14 09:02:00;;;;;;;10.75;8.53;;;;;;;26.94;45.53;94982.97;1831448;78;21015;-71
2022/08/14 09:04:32;;;;;;;9.58;8.65;;;;;;;27.16;44.60;94979.92;1831731;78;21011;-72
2022/08/14 09:06:59;;;;;;;11.10;8.68;;;;;;;27.35;44.14;94980.94;1831649;78;20999;-71
2022/08/14 09:09:30;;;;;;;10.45;8.88;;;;;;;27.36;42.65;94982.64;1831584;78;20968;-72
2022/08/14 09:12:00;;;;;;;11.12;9.20;;;;;;;27.40;41.66;94972.72;1831667;78;21457;-72
2022/08/14 09:14:30;;;;;;;10.48;8.15;;;;;;;27.59;43.03;94972.30;1831699;78;21011;-72
2022/08/14 09:16:58;;;;;;;10.08;9.08;;;;;;;27.59;41.06;94975.89;1831645;78;21500;-71
2022/08/14 09:19:27;;;;;;;10.35;8.70;;;;;;;27.75;42.30;94965.77;1834834;78;20995;-71
2022/08/14 09:21:54;;;;;;;9.50;8.53;;;;;;;27.84;40.29;94962.69;1834581;78;21062;-71
2022/08/14 09:24:21;;;;;;;10.48;8.15;;;;;;;27.82;42.78;94961.97;1834651;78;21043;-71
2022/08/14 09:26:49;;;;;;;10.30;8.80;;;;;;;28.05;41.75;94961.95;1835147;78;21051;-72
2022/08/14 09:29:17;;;;;;;8.93;8.03;;;;;;;28.28;41.86;94960.19;1835020;78;21477;-72
2022/08/14 09:31:48;;;;;;;9.78;8.55;;;;;;;28.39;41.54;94953.17;1834739;78;21095;-71
2022/08/14 09:34:55;;;;;;;9.18;8.18;;;;;;;28.53;40.28;94945.56;1835068;78;21063;-71
2022/08/14 09:37:33;;;;;;;9.20;8.05;;;;;;;28.56;41.28;94942.03;1834722;78;21090;-72
2022/08/14 09:40:20;;;;;;;9.00;8.10;;;;;;;28.78;39.25;94946.15;1835139;78;21516;-72
2022/08/14 09:43:01;;;;;;;16.40;8.08;;;;;;;28.85;39.57;94939.09;1798589;78;21027;-71
2022/08/14 09:45:42;;;;;;;8.48;7.37;;;;;;;29.08;40.09;94941.31;1835174;78;21493;-71
2022/08/14 09:48:18;;;;;;;9.55;8.25;;;;;;;29.08;37.42;94933.17;1835474;78;21004;-71
2022/08/14 09:50:48;;;;;;;9.28;8.33;;;;;;;29.04;38.21;94930.41;1835167;78;21015;-71
2022/08/14 09:53:37;;;;;;;10.08;8.28;;;;;;;29.13;37.06;94936.27;1835263;78;21015;-72
2022/08/14 09:56:05;;;;;;;8.43;7.62;;;;;;;29.29;37.12;94936.40;1835224;78;20972;-72
2022/08/14 09:58:42;;;;;;;8.83;7.70;;;;;;;29.34;38.34;94927.77;1835007;78;21098;-71
2022/08/14 10:01:13;;;;;;;9.98;8.00;;;;;;;29.46;38.06;94924.27;1835493;78;20967;-71
2022/08/14 10:03:56;;;;;;;8.58;7.72;;;;;;;29.50;36.88;94921.06;1835204;78;21046;-72
2022/08/14 10:06:24;;;;;;;8.60;7.40;;;;;;;29.68;37.95;94920.18;1833379;78;21023;-72
2022/08/14 10:09:04;;;;;;;9.33;7.83;;;;;;;29.90;37.33;94910.09;1835232;78;21020;-71
2022/08/14 10:11:37;;;;;;;9.78;7.15;;;;;;;30.09;37.79;94913.55;1835090;78;21015;-72
2022/08/14 10:14:20;;;;;;;8.20;7.40;;;;;;;30.20;36.28;94914.11;1835034;78;20996;-71
2022/08/14 10:16:51;;;;;;;7.92;7.12;;;;;;;30.27;35.42;94908.90;1835253;78;21482;-71
2022/08/14 10:19:18;;;;;;;8.13;7.35;;;;;;;30.38;35.27;94906.37;1831714;78;21067;-71
2022/08/14 10:22:00;;;;;;;8.68;7.65;;;;;;;30.54;35.84;94905.05;1831700;78;21515;-72
2022/08/14 10:24:40;;;;;;;8.20;7.37;;;;;;;30.55;33.63;94897.22;1831937;78;20992;-72
2022/08/14 10:27:24;;;;;;;8.50;7.65;;;;;;;30.59;34.30;94898.59;1831481;78;20984;-72
2022/08/14 10:29:55;;;;;;;8.43;7.60;;;;;;;30.44;34.47;94895.31;1831689;78;21043;-71
2022/08/14 10:32:22;;;;;;;8.07;7.30;;;;;;;30.50;34.62;94894.66;1832020;78;20987;-72
2022/08/14 10:34:50;;;;;;;7.80;7.00;;;;;;;30.50;34.83;94897.38;1831427;78;21253;-71
2022/08/14 10:37:18;;;;;;;8.13;7.33;;;;;;;30.48;33.97;94896.69;1831757;78;20984;-71
2022/08/14 10:40:01;;;;;;;7.95;6.92;;;;;;;30.25;32.27;94896.48;1831655;78;20976;-72
2022/08/14 10:42:37;;;;;;;8.08;7.05;;;;;;;30.28;32.36;94890.70;1831781;78;21030;-72
2022/08/14 10:45:20;;;;;;;7.42;6.62;;;;;;;30.39;33.13;94887.64;1831605;78;21039;-71
2022/08/14 10:47:49;;;;;;;7.97;6.70;;;;;;;30.59;34.03;94884.98;1831696;78;21027;-71
2022/08/14 10:50:17;;;;;;;7.97;6.45;;;;;;;30.81;33.58;94896.21;1831644;78;20976;-72
2022/08/14 10:52:45;;;;;;;9.90;6.92;;;;;;;30.82;32.68;94889.80;1831746;78;21504;-72
2022/08/14 10:55:18;;;;;;;7.33;6.62;;;;;;;30.87;32.51;94890.62;1831777;78;20988;-72
2022/08/14 10:57:53;;;;;;;8.13;7.33;;;;;;;31.04;32.66;94886.87;1831808;78;21379;-72
2022/08/14 11:00:29;;;;;;;10.68;6.72;;;;;;;31.17;31.27;94888.58;1831603;78;21019;-72
2022/08/14 11:03:06;;;;;;;7.30;6.60;;;;;;;31.08;31.17;94896.42;1830482;78;21540;-71
2022/08/14 11:05:48;;;;;;;7.20;6.50;;;;;;;30.97;30.48;94892.66;1831391;78;21020;-72
2022/08/14 11:08:18;;;;;;;9.83;7.15;;;;;;;31.19;32.19;94885.67;1831657;78;21023;-72
2022/08/14 11:10:54;;;;;;;7.83;7.03;;;;;;;31.38;33.32;94882.61;1827012;78;20968;-72
2022/08/14 11:13:26;;;;;;;7.62;6.92;;;;;;;31.48;32.44;94879.70;1831767;78;21015;-71
2022/08/14 11:15:56;;;;;;;8.28;7.47;;;;;;;31.56;32.43;94878.30;1832021;78;21612;-72
2022/08/14 11:18:23;;;;;;;8.20;7.28;;;;;;;31.71;33.57;94885.77;1831581;78;21289;-72
2022/08/14 11:20:54;;;;;;;7.62;6.85;;;;;;;31.93;33.81;94881.40;1831744;78;21035;-72
2022/08/14 11:23:28;;;;;;;8.15;7.15;;;;;;;32.11;33.37;94880.16;1831643;78;20952;-72
2022/08/14 11:25:57;;;;;;;9.90;7.00;;;;;;;32.22;32.77;94883.52;1831624;78;21008;-72
2022/08/14 11:28:29;;;;;;;9.73;7.42;;;;;;;32.19;32.06;94882.52;1831556;78;21497;-71
2022/08/14 11:30:58;;;;;;;7.58;6.87;;;;;;;31.94;31.71;94889.45;1831179;78;20984;-71
2022/08/14 11:33:30;;;;;;;8.15;7.28;;;;;;;31.52;32.91;94884.27;1831731;78;21019;-72
2022/08/14 11:35:59;;;;;;;10.58;7.22;;;;;;;31.45;33.18;94880.89;1832016;78;21535;-72
2022/08/14 11:38:39;;;;;;;8.18;7.10;;;;;;;31.46;34.03;94875.77;1831844;78;21000;-72
2022/08/14 11:41:07;;;;;;;8.20;6.78;;;;;;;31.59;32.26;94867.04;1831771;78;21067;-72
2022/08/14 11:43:43;;;;;;;10.88;7.17;;;;;;;31.85;32.46;94870.01;1831368;78;20999;-71
2022/08/14 11:46:12;;;;;;;8.18;7.33;;;;;;;32.00;33.36;94861.44;1831648;78;21015;-72
2022/08/14 11:48:51;;;;;;;9.63;7.62;;;;;;;32.01;32.77;94860.44;1831717;78;20975;-72
2022/08/14 11:51:24;;;;;;;9.15;6.95;;;;;;;32.15;32.99;94851.98;1831596;78;21003;-72
2022/08/14 11:54:05;;;;;;;7.60;6.80;;;;;;;32.57;33.75;94857.56;1831620;78;21470;-72
2022/08/14 11:56:38;;;;;;;7.87;6.87;;;;;;;32.62;33.26;94870.16;1831746;78;20988;-71
2022/08/14 11:59:16;;;;;;;7.60;6.80;;;;;;;32.93;32.14;94861.03;1831338;78;20975;-72
2022/08/14 12:01:48;;;;;;;7.87;7.10;;;;;;;33.20;31.88;94867.83;1831741;78;21019;-72
2022/08/14 12:04:18;;;;;;;7.78;7.05;;;;;;;32.86;32.06;94868.26;1829988;78;20984;-72
2022/08/14 12:06:54;;;;;;;8.10;7.30;;;;;;;32.47;32.65;94865.11;1831634;78;21574;-72
2022/08/14 12:09:32;;;;;;;7.53;6.80;;;;;;;32.08;33.58;94866.01;1831712;78;20987;-72
2022/08/14 12:12:01;;;;;;;7.67;6.80;;;;;;;31.73;34.35;94866.84;1831519;78;21004;-71